Time;durP1;ratioP1;P1;durP2;ratioP2;P2;SDS_P1;SDS_P2;PMS_P1;PMS_P2;Temp;Humidity;BMP_temperature;BMP_pressure;BME280_temperature;BME280_humidity;BME280_pressure;Samples;Min_cycle;Max_cycle;Signal;HPM_P1;HPM_P2
2021/10/21 00:00:20;;;;;;;;;;;;;;;13.27;100.00;98853.31;4897656;29;19928;-50
2021/10/21 00:02:47;;;;;;;;;;;;;;;13.34;100.00;98856.94;4881724;29;20049;-48
2021/10/21 00:05:14;;;;;;;;;;;;;;;13.31;100.00;98857.25;4896068;29;19999;-51
2021/10/21 00:07:40;;;;;;;;;;;;;;;13.40;100.00;98850.19;4897839;29;19935;-50
2021/10/21 00:10:08;;;;;;;;;;;;;;;13.30;100.00;98852.16;4897498;29;19928;-52
2021/10/21 00:12:35;;;;;;;;;;;;;;;13.33;100.00;98854.44;4895471;29;19974;-45
2021/10/21 00:15:02;;;;;;;;;;;;;;;13.47;100.00;98839.78;4896515;29;20435;-58
2021/10/21 00:17:29;;;;;;;;;;;;;;;13.47;100.00;98834.50;4897018;29;19927;-58
2021/10/21 00:19:55;;;;;;;;;;;;;;;13.43;100.00;98834.03;4896929;29;20388;-58
2021/10/21 00:22:22;;;;;;;;;;;;;;;13.50;100.00;98802.50;4898406;29;19935;-58
2021/10/21 00:24:49;;;;;;;;;;;;;;;13.45;100.00;98795.06;4898144;29;19927;-58
2021/10/21 00:27:15;;;;;;;;;;;;;;;13.42;100.00;98781.41;4897724;29;19928;-57
2021/10/21 00:29:42;;;;;;;;;;;;;;;13.38;100.00;98762.41;4897849;29;19927;-59
2021/10/21 00:32:10;;;;;;;;;;;;;;;13.45;100.00;98744.91;4881800;29;19982;-58
2021/10/21 00:34:36;;;;;;;;;;;;;;;13.43;100.00;98704.66;4898340;29;20265;-57
2021/10/21 00:37:03;;;;;;;;;;;;;;;13.41;100.00;98697.91;4897817;29;19927;-59
2021/10/21 00:39:29;;;;;;;;;;;;;;;13.43;100.00;98690.59;4898249;29;20387;-58
2021/10/21 00:41:56;;;;;;;;;;;;;;;13.53;100.00;98670.13;4898141;29;19934;-58
2021/10/21 00:44:23;;;;;;;;;;;;;;;13.44;100.00;98681.69;4898067;29;19976;-58
2021/10/21 00:46:50;;;;;;;;;;;;;;;13.44;100.00;98673.78;4898171;29;19963;-58
2021/10/21 00:49:17;;;;;;;;;;;;;;;13.48;100.00;98656.59;4881071;29;19927;-58
2021/10/21 00:51:44;;;;;;;;;;;;;;;13.45;100.00;98651.66;4898445;29;20264;-52
2021/10/21 00:54:10;;;;;;;;;;;;;;;13.43;100.00;98653.66;4881553;29;19927;-51
2021/10/21 00:56:37;;;;;;;;;;;;;;;13.45;100.00;98664.88;4898069;29;20283;-49
2021/10/21 00:59:04;;;;;;;;;;;;;;;13.49;100.00;98660.91;4878350;29;19983;-52
2021/10/21 01:01:33;;;;;;;;;;;;;;;13.53;100.00;98651.63;4893738;29;19932;-58
2021/10/21 01:04:01;;;;;;;;;;;;;;;13.47;100.00;98639.09;4895700;29;20284;-53
2021/10/21 01:06:27;;;;;;;;;;;;;;;13.52;100.00;98640.25;4880142;29;20347;-58
2021/10/21 01:08:54;;;;;;;;;;;;;;;13.41;100.00;98632.69;4897716;29;19954;-57
2021/10/21 01:11:21;;;;;;;;;;;;;;;13.38;100.00;98633.06;4897553;29;20360;-58
2021/10/21 01:13:47;;;;;;;;;;;;;;;13.36;100.00;98624.47;4881016;29;19933;-58
2021/10/21 01:16:14;;;;;;;;;;;;;;;13.36;100.00;98621.81;4880810;29;19927;-57
2021/10/21 01:18:42;;;;;;;;;;;;;;;13.34;100.00;98597.41;4898012;29;19993;-58
2021/10/21 01:21:09;;;;;;;;;;;;;;;13.34;100.00;98603.50;4881110;29;19928;-57
2021/10/21 01:23:36;;;;;;;;;;;;;;;13.29;100.00;98610.28;4897829;29;19928;-57
2021/10/21 01:26:06;;;;;;;;;;;;;;;13.27;100.00;98604.38;4897859;29;19928;-57
2021/10/21 01:28:33;;;;;;;;;;;;;;;13.26;100.00;98584.25;4862422;29;19928;-57
2021/10/21 01:30:59;;;;;;;;;;;;;;;13.27;99.67;98568.22;4879066;29;20292;-57
2021/10/21 01:33:26;;;;;;;;;;;;;;;13.24;99.04;98584.41;4878996;29;20380;-57
2021/10/21 01:35:53;;;;;;;;;;;;;;;13.21;98.45;98592.69;4878974;29;19935;-58
2021/10/21 01:38:19;;;;;;;;;;;;;;;13.18;98.17;98596.50;4878717;29;19943;-57
2021/10/21 01:40:46;;;;;;;;;;;;;;;13.24;98.00;98578.31;4878889;29;19928;-58
2021/10/21 01:43:14;;;;;;;;;;;;;;;13.17;97.95;98581.66;4878742;29;20473;-58
2021/10/21 01:45:40;;;;;;;;;;;;;;;13.10;95.69;98580.69;4879032;29;19928;-58
2021/10/21 01:48:07;;;;;;;;;;;;;;;13.07;93.21;98569.66;4880849;29;19928;-58
2021/10/21 01:50:34;;;;;;;;;;;;;;;13.00;93.86;98586.16;4882471;29;19935;-57
2021/10/21 01:53:00;;;;;;;;;;;;;;;13.00;93.25;98580.88;4881752;29;19927;-57
2021/10/21 01:55:27;;;;;;;;;;;;;;;12.98;91.76;98582.88;4881494;29;19935;-57
2021/10/21 01:57:54;;;;;;;;;;;;;;;12.89;91.09;98589.16;4865705;29;19928;-57
2021/10/21 02:00:21;;;;;;;;;;;;;;;12.83;91.65;98584.59;4882322;29;19984;-57
2021/10/21 02:02:48;;;;;;;;;;;;;;;12.73;91.47;98591.84;4882484;29;20384;-57
2021/10/21 02:05:16;;;;;;;;;;;;;;;12.73;92.44;98594.50;4882379;29;19986;-58
2021/10/21 02:07:42;;;;;;;;;;;;;;;12.72;92.51;98592.84;4882229;29;20384;-58
2021/10/21 02:10:14;;;;;;;;;;;;;;;12.67;92.17;98603.91;4882448;29;19928;-58
2021/10/21 02:12:41;;;;;;;;;;;;;;;12.60;93.62;98595.03;4881274;29;19980;-59
2021/10/21 02:15:08;;;;;;;;;;;;;;;12.54;92.12;98601.75;4876857;29;19932;-58
2021/10/21 02:17:34;;;;;;;;;;;;;;;12.45;90.59;98592.25;4879302;29;19974;-58
2021/10/21 02:20:01;;;;;;;;;;;;;;;12.41;89.76;98590.94;4880964;29;19932;-58
2021/10/21 02:22:28;;;;;;;;;;;;;;;12.31;91.26;98593.72;4880525;29;19927;-58
2021/10/21 02:24:55;;;;;;;;;;;;;;;12.29;89.54;98591.25;4880957;29;19976;-58
2021/10/21 02:27:21;;;;;;;;;;;;;;;12.21;88.46;98588.63;4886719;29;19935;-59
2021/10/21 02:29:48;;;;;;;;;;;;;;;12.13;90.05;98584.19;4900627;29;19934;-58
2021/10/21 02:32:15;;;;;;;;;;;;;;;12.06;88.49;98585.81;4900436;29;19928;-58
2021/10/21 02:34:42;;;;;;;;;;;;;;;11.95;88.17;98571.16;4883394;29;19934;-57
2021/10/21 02:37:08;;;;;;;;;;;;;;;11.88;87.59;98569.34;4900367;29;20413;-58
2021/10/21 02:39:35;;;;;;;;;;;;;;;11.86;87.52;98571.28;4900476;29;19933;-58
2021/10/21 02:42:01;;;;;;;;;;;;;;;11.87;87.40;98568.50;4898829;29;19932;-57
2021/10/21 02:44:28;;;;;;;;;;;;;;;11.83;86.16;98567.19;4897258;29;19931;-58
2021/10/21 02:46:55;;;;;;;;;;;;;;;11.90;86.67;98562.94;4896391;29;20351;-58
2021/10/21 02:49:21;;;;;;;;;;;;;;;11.84;86.71;98567.00;4897780;29;19927;-58
2021/10/21 02:51:48;;;;;;;;;;;;;;;11.82;86.74;98566.38;4899183;29;19979;-57
2021/10/21 02:54:15;;;;;;;;;;;;;;;11.85;87.10;98575.75;4900229;29;19928;-58
2021/10/21 02:56:41;;;;;;;;;;;;;;;11.80;87.20;98564.88;4883588;29;19934;-58
2021/10/21 02:59:08;;;;;;;;;;;;;;;11.79;87.10;98576.38;4899727;29;19931;-58
2021/10/21 03:01:35;;;;;;;;;;;;;;;11.77;86.37;98567.84;4899784;29;20378;-59
2021/10/21 03:04:02;;;;;;;;;;;;;;;11.76;86.97;98560.94;4900041;29;19943;-58
2021/10/21 03:06:28;;;;;;;;;;;;;;;11.79;85.90;98555.31;4899757;29;19976;-58
2021/10/21 03:08:55;;;;;;;;;;;;;;;11.75;86.60;98549.56;4898243;29;19927;-58
2021/10/21 03:11:22;;;;;;;;;;;;;;;11.78;86.50;98554.50;4898024;29;19949;-58
2021/10/21 03:13:48;;;;;;;;;;;;;;;11.79;85.63;98555.31;4896539;29;19942;-52
2021/10/21 03:16:15;;;;;;;;;;;;;;;11.82;87.66;98553.19;4898939;29;19927;-57
2021/10/21 03:18:42;;;;;;;;;;;;;;;11.79;89.33;98552.69;4900014;29;19934;-52
2021/10/21 03:21:08;;;;;;;;;;;;;;;11.67;90.53;98547.75;4900048;29;19932;-49
2021/10/21 03:23:35;;;;;;;;;;;;;;;11.58;92.35;98561.06;4898492;29;19983;-49
2021/10/21 03:26:02;;;;;;;;;;;;;;;11.48;93.43;98548.88;4880819;29;20459;-52
2021/10/21 03:28:28;;;;;;;;;;;;;;;11.52;93.94;98559.06;4878712;29;19938;-50
2021/10/21 03:30:56;;;;;;;;;;;;;;;11.51;94.69;98553.00;4895816;29;19931;-50
2021/10/21 03:33:22;;;;;;;;;;;;;;;11.46;95.67;98550.81;4896617;29;19938;-52
2021/10/21 03:35:49;;;;;;;;;;;;;;;11.51;95.09;98553.00;4896745;29;19934;-51
2021/10/21 03:38:16;;;;;;;;;;;;;;;11.45;95.06;98545.72;4899452;29;19983;-51
2021/10/21 03:40:42;;;;;;;;;;;;;;;11.41;95.09;98547.03;4897692;29;19931;-49
2021/10/21 03:43:09;;;;;;;;;;;;;;;11.41;94.91;98542.63;4895719;29;19931;-49
2021/10/21 03:45:41;;;;;;;;;;;;;;;11.41;95.45;98545.25;4895694;29;20014;-48
2021/10/21 03:48:07;;;;;;;;;;;;;;;11.46;94.86;98535.03;4896877;29;19935;-48
2021/10/21 03:50:34;;;;;;;;;;;;;;;11.38;94.97;98534.22;4879582;29;20007;-49
2021/10/21 03:53:00;;;;;;;;;;;;;;;11.41;94.39;98549.66;4897899;29;20328;-57
2021/10/21 03:55:27;;;;;;;;;;;;;;;11.43;95.08;98548.53;4899252;29;19987;-58
2021/10/21 03:57:54;;;;;;;;;;;;;;;11.45;94.85;98543.09;4897973;29;19932;-58
2021/10/21 04:00:20;;;;;;;;;;;;;;;11.41;94.41;98542.63;4897670;29;19956;-58
2021/10/21 04:02:47;;;;;;;;;;;;;;;11.37;95.83;98535.19;4897568;29;19935;-57
2021/10/21 04:05:14;;;;;;;;;;;;;;;11.36;95.56;98546.69;4898681;29;20284;-57
2021/10/21 04:07:40;;;;;;;;;;;;;;;11.42;94.79;98535.53;4897193;29;19928;-57
2021/10/21 04:10:07;;;;;;;;;;;;;;;11.42;95.26;98540.78;4878246;29;19938;-58
2021/10/21 04:12:35;;;;;;;;;;;;;;;11.44;96.01;98552.81;4898083;29;19932;-57
2021/10/21 04:15:01;;;;;;;;;;;;;;;11.40;96.13;98548.00;4887073;29;19927;-58
2021/10/21 04:17:28;;;;;;;;;;;;;;;11.41;96.06;98542.63;4878541;29;19934;-58
2021/10/21 04:19:55;;;;;;;;;;;;;;;11.40;97.12;98548.84;4877446;29;20613;-58
2021/10/21 04:22:22;;;;;;;;;;;;;;;11.35;98.00;98550.31;4877279;29;19935;-51
2021/10/21 04:24:48;;;;;;;;;;;;;;;11.37;98.92;98529.94;4877453;29;19996;-51
2021/10/21 04:27:15;;;;;;;;;;;;;;;11.24;98.56;98547.00;4878936;29;19931;-51
2021/10/21 04:29:41;;;;;;;;;;;;;;;11.18;99.84;98545.03;4875933;29;19984;-48
2021/10/21 04:32:08;;;;;;;;;;;;;;;11.20;100.00;98539.59;4869173;29;19931;-50
2021/10/21 04:34:35;;;;;;;;;;;;;;;11.21;100.00;98549.13;4894248;29;20370;-49
2021/10/21 04:37:02;;;;;;;;;;;;;;;11.14;100.00;98541.88;4898221;29;19979;-49
2021/10/21 04:39:29;;;;;;;;;;;;;;;11.12;100.00;98548.28;4881850;29;19934;-50
2021/10/21 04:41:55;;;;;;;;;;;;;;;11.15;100.00;98542.69;4888926;29;20434;-50
2021/10/21 04:44:22;;;;;;;;;;;;;;;11.13;100.00;98552.56;4879598;29;19928;-47
2021/10/21 04:46:49;;;;;;;;;;;;;;;11.11;100.00;98554.50;4878655;29;20018;-47
2021/10/21 04:49:16;;;;;;;;;;;;;;;11.14;100.00;98546.31;4878752;29;20407;-45
2021/10/21 04:51:42;;;;;;;;;;;;;;;11.12;100.00;98559.63;4897314;29;19980;-47
2021/10/21 04:54:09;;;;;;;;;;;;;;;11.11;100.00;98557.16;4898367;29;20170;-51
2021/10/21 04:56:36;;;;;;;;;;;;;;;11.10;100.00;98556.34;4876824;29;19932;-47
2021/10/21 04:59:02;;;;;;;;;;;;;;;11.07;100.00;98572.44;4875869;29;20388;-47
2021/10/21 05:01:29;;;;;;;;;;;;;;;11.03;100.00;98571.13;4862759;29;20362;-47
2021/10/21 05:03:56;;;;;;;;;;;;;;;11.03;100.00;98567.63;4879475;29;19928;-49
2021/10/21 05:06:23;;;;;;;;;;;;;;;11.08;100.00;98571.44;4879331;29;20304;-50
2021/10/21 05:08:49;;;;;;;;;;;;;;;11.07;100.00;98575.06;4878429;29;19936;-49
2021/10/21 05:11:16;;;;;;;;;;;;;;;11.01;100.00;98583.59;4862591;29;19932;-58
2021/10/21 05:13:43;;;;;;;;;;;;;;;11.02;100.00;98585.25;4879314;29;20023;-58
2021/10/21 05:16:09;;;;;;;;;;;;;;;11.02;100.00;98590.50;4862914;29;19983;-57
2021/10/21 05:18:36;;;;;;;;;;;;;;;11.05;100.00;98595.44;4862188;29;19928;-57
2021/10/21 05:21:02;;;;;;;;;;;;;;;11.11;100.00;98601.88;4879009;29;20440;-57
2021/10/21 05:23:29;;;;;;;;;;;;;;;11.06;100.00;98599.72;4878228;29;19950;-57
2021/10/21 05:25:56;;;;;;;;;;;;;;;11.04;100.00;98603.47;4878769;29;19928;-50
2021/10/21 05:28:22;;;;;;;;;;;;;;;11.06;100.00;98619.94;4874973;29;20336;-51
2021/10/21 05:30:50;;;;;;;;;;;;;;;10.99;100.00;98625.81;4875159;29;19928;-48
2021/10/21 05:33:16;;;;;;;;;;;;;;;11.07;100.00;98645.25;4859295;29;20311;-54
2021/10/21 05:35:43;;;;;;;;;;;;;;;11.06;100.00;98659.41;4876760;29;20018;-51
2021/10/21 05:38:10;;;;;;;;;;;;;;;11.04;100.00;98674.50;4860023;29;19936;-51
2021/10/21 05:40:36;;;;;;;;;;;;;;;11.04;100.00;98667.44;4878704;29;19946;-52
2021/10/21 05:43:03;;;;;;;;;;;;;;;10.87;100.00;98690.19;4877460;29;20348;-47
2021/10/21 05:45:30;;;;;;;;;;;;;;;10.89;100.00;98717.13;4862199;29;20380;-50
2021/10/21 05:47:56;;;;;;;;;;;;;;;10.86;100.00;98733.22;4877400;29;19928;-51
2021/10/21 05:50:23;;;;;;;;;;;;;;;10.80;100.00;98776.75;4894425;29;19975;-52
2021/10/21 05:52:50;;;;;;;;;;;;;;;10.68;100.00;98813.94;4859117;29;19935;-50
2021/10/21 05:55:17;;;;;;;;;;;;;;;10.49;100.00;98810.47;4875017;29;19944;-47
2021/10/21 05:57:43;;;;;;;;;;;;;;;10.35;100.00;98843.34;4891188;29;19928;-57
2021/10/21 06:00:11;;;;;;;;;;;;;;;10.21;100.00;98872.69;4878926;29;20549;-57
2021/10/21 06:02:37;;;;;;;;;;;;;;;10.14;100.00;98885.56;4878705;29;19928;-57
2021/10/21 06:05:04;;;;;;;;;;;;;;;10.03;100.00;98935.66;4893138;29;20027;-57
2021/10/21 06:07:31;;;;;;;;;;;;;;;9.92;100.00;98955.84;4878236;29;19928;-58
2021/10/21 06:09:58;;;;;;;;;;;;;;;9.89;100.00;98985.03;4883493;29;19928;-58
2021/10/21 06:12:25;;;;;;;;;;;;;;;9.84;100.00;99008.25;4877596;29;19928;-58
2021/10/21 06:14:52;;;;;;;;;;;;;;;9.81;100.00;99026.91;4878536;29;20066;-57
2021/10/21 06:17:19;;;;;;;;;;;;;;;9.68;100.00;99052.59;4895220;29;20003;-58
2021/10/21 06:19:45;;;;;;;;;;;;;;;9.60;100.00;99088.25;4880623;29;19971;-57
2021/10/21 06:22:14;;;;;;;;;;;;;;;9.61;100.00;99121.41;4877372;29;19936;-58
2021/10/21 06:24:40;;;;;;;;;;;;;;;9.58;100.00;99126.91;4860689;29;20437;-58
2021/10/21 06:27:07;;;;;;;;;;;;;;;9.62;100.00;99146.69;4875543;29;19993;-57
2021/10/21 06:29:34;;;;;;;;;;;;;;;9.64;100.00;99170.19;4874972;29;19938;-58
2021/10/21 06:32:00;;;;;;;;;;;;;;;9.59;100.00;99186.31;4875988;29;20511;-58
2021/10/21 06:34:27;;;;;;;;;;;;;;;9.60;100.00;99210.78;4878150;29;20368;-57
2021/10/21 06:36:54;;;;;;;;;;;;;;;9.63;100.00;99226.25;4882064;29;19935;-58
2021/10/21 06:39:21;;;;;;;;;;;;;;;9.65;100.00;99240.06;4864539;29;19928;-58
2021/10/21 06:41:47;;;;;;;;;;;;;;;9.64;100.00;99260.25;4881864;29;19927;-59
2021/10/21 06:44:14;;;;;;;;;;;;;;;9.64;100.00;99275.19;4881827;29;19970;-58
2021/10/21 06:46:41;;;;;;;;;;;;;;;9.61;100.00;99294.66;4881729;29;19928;-58
2021/10/21 06:49:07;;;;;;;;;;;;;;;9.63;100.00;99318.13;4880488;29;19934;-57
2021/10/21 06:51:34;;;;;;;;;;;;;;;9.63;100.00;99324.19;4880681;29;19932;-57
2021/10/21 06:54:00;;;;;;;;;;;;;;;9.64;100.00;99325.06;4882305;29;20312;-57
2021/10/21 06:56:32;;;;;;;;;;;;;;;9.74;100.00;99351.34;4881215;29;19928;-57
2021/10/21 06:58:59;;;;;;;;;;;;;;;9.72;100.00;99361.97;4865097;29;19984;-58
2021/10/21 07:01:25;;;;;;;;;;;;;;;9.73;100.00;99376.75;4881244;29;20351;-57
2021/10/21 07:03:52;;;;;;;;;;;;;;;9.72;100.00;99379.50;4881351;29;19928;-58
2021/10/21 07:06:19;;;;;;;;;;;;;;;9.74;100.00;99393.34;4880585;29;19932;-58
2021/10/21 07:08:45;;;;;;;;;;;;;;;9.74;100.00;99404.69;4878711;29;19932;-58
2021/10/21 07:11:12;;;;;;;;;;;;;;;9.76;100.00;99422.91;4879962;29;20291;-58
2021/10/21 07:13:39;;;;;;;;;;;;;;;9.80;100.00;99429.56;4881060;29;19939;-57
2021/10/21 07:16:06;;;;;;;;;;;;;;;9.83;100.00;99445.09;4895481;29;19928;-58
2021/10/21 07:18:33;;;;;;;;;;;;;;;9.82;100.00;99431.13;4878217;29;19938;-58
2021/10/21 07:21:00;;;;;;;;;;;;;;;9.86;100.00;99447.44;4879632;29;20283;-58
2021/10/21 07:23:26;;;;;;;;;;;;;;;9.88;100.00;99456.00;4881221;29;19934;-57
2021/10/21 07:25:54;;;;;;;;;;;;;;;9.94;100.00;99481.78;4879863;29;20340;-52
2021/10/21 07:28:22;;;;;;;;;;;;;;;9.95;100.00;99491.31;4880973;29;20402;-52
2021/10/21 07:30:53;;;;;;;;;;;;;;;9.98;100.00;99521.75;4877517;29;19931;-53
2021/10/21 07:33:20;;;;;;;;;;;;;;;10.00;100.00;99538.22;4878737;29;20421;-49
2021/10/21 07:35:47;;;;;;;;;;;;;;;10.05;100.00;99548.31;4881174;29;20295;-55
2021/10/21 07:38:14;;;;;;;;;;;;;;;10.11;100.00;99560.94;4877902;29;19943;-48
2021/10/21 07:40:41;;;;;;;;;;;;;;;10.19;100.00;99566.41;4876998;29;19935;-59
2021/10/21 07:43:11;;;;;;;;;;;;;;;10.18;100.00;99574.41;4877312;29;20046;-59
2021/10/21 07:45:38;;;;;;;;;;;;;;;10.20;100.00;99599.59;4894709;29;19931;-59
2021/10/21 07:48:06;;;;;;;;;;;;;;;10.23;100.00;99601.97;4880855;29;19934;-52
2021/10/21 07:50:34;;;;;;;;;;;;;;;10.22;100.00;99617.84;4894641;29;19935;-53
2021/10/21 07:53:05;;;;;;;;;;;;;;;10.17;100.00;99641.91;4894567;29;19980;-51
2021/10/21 07:55:35;;;;;;;;;;;;;;;10.17;99.54;99641.06;4880837;29;19927;-53
2021/10/21 07:58:03;;;;;;;;;;;;;;;10.11;100.00;99652.91;4894173;29;19928;-51
2021/10/21 08:00:30;;;;;;;;;;;;;;;10.03;100.00;99664.03;4876342;29;20034;-53
2021/10/21 08:02:56;;;;;;;;;;;;;;;10.01;100.00;99672.97;4878450;29;20435;-48
2021/10/21 08:05:23;;;;;;;;;;;;;;;10.10;100.00;99685.38;4880135;29;20026;-47
2021/10/21 08:07:50;;;;;;;;;;;;;;;10.12;100.00;99686.09;4880025;29;19971;-50
2021/10/21 08:10:21;;;;;;;;;;;;;;;10.18;100.00;99690.00;4879891;29;19957;-50
2021/10/21 08:12:48;;;;;;;;;;;;;;;10.32;100.00;99706.31;4876222;29;19984;-51
2021/10/21 08:15:15;;;;;;;;;;;;;;;10.52;99.84;99714.38;4875783;29;19959;-50
2021/10/21 08:17:44;;;;;;;;;;;;;;;10.75;99.66;99716.91;4878443;29;19928;-48
2021/10/21 08:20:11;;;;;;;;;;;;;;;10.93;96.25;99723.22;4880110;29;19928;-49
2021/10/21 08:22:39;;;;;;;;;;;;;;;11.02;95.37;99715.53;4880389;29;20338;-47
2021/10/21 08:25:06;;;;;;;;;;;;;;;11.11;92.48;99736.63;4879909;29;19999;-51
2021/10/21 08:27:33;;;;;;;;;;;;;;;10.98;90.83;99728.09;4876602;29;19950;-49
2021/10/21 08:29:59;;;;;;;;;;;;;;;11.17;88.80;99748.44;4889826;29;19932;-51
2021/10/21 08:32:26;;;;;;;;;;;;;;;11.44;86.25;99750.50;4876499;29;20363;-51
2021/10/21 08:34:53;;;;;;;;;;;;;;;11.61;84.78;99751.66;4877656;29;20051;-51
2021/10/21 08:37:19;;;;;;;;;;;;;;;11.81;82.56;99754.38;4891393;29;20010;-47
2021/10/21 08:39:46;;;;;;;;;;;;;;;11.95;82.70;99759.28;4876855;29;19935;-58
2021/10/21 08:42:14;;;;;;;;;;;;;;;12.06;81.32;99782.06;4879657;29;19928;-58
2021/10/21 08:44:40;;;;;;;;;;;;;;;12.11;81.69;99787.75;4879654;29;19956;-59
2021/10/21 08:47:07;;;;;;;;;;;;;;;12.12;79.24;99799.13;4879638;29;20316;-58
2021/10/21 08:49:37;;;;;;;;;;;;;;;12.29;79.35;99800.28;4879514;29;20513;-58
2021/10/21 08:52:04;;;;;;;;;;;;;;;12.58;78.01;99805.56;4891133;29;19940;-58
2021/10/21 08:54:31;;;;;;;;;;;;;;;12.60;78.09;99811.53;4876575;29;20078;-59
2021/10/21 08:56:58;;;;;;;;;;;;;;;12.48;79.64;99812.66;4878854;29;19983;-58
2021/10/21 08:59:25;;;;;;;;;;;;;;;12.63;78.52;99826.28;4879367;29;19934;-58
2021/10/21 09:02:06;;;;;;;;;;;;;;;12.50;79.17;99832.66;4878318;29;19927;-58
2021/10/21 09:04:52;;;;;;;;;;;;;;;12.32;79.60;99852.72;4879206;29;19988;-58
2021/10/21 09:10:11;;;;;;;;;;;;;;;12.28;82.94;99862.69;4879591;29;20383;-48
2021/10/21 09:12:38;;;;;;;;;;;;;;;12.20;81.66;99874.88;4878853;29;20288;-48
2021/10/21 09:15:09;;;;;;;;;;;;;;;12.00;82.46;99893.28;4874555;29;19928;-50
2021/10/21 09:17:37;;;;;;;;;;;;;;;11.66;82.16;99904.84;4890007;29;19928;-49
2021/10/21 09:20:39;;;;;;;;;;;;;;;11.27;85.38;99917.75;4875550;29;19994;-52
2021/10/21 09:23:09;;;;;;;;;;;;;;;11.23;88.29;99913.69;4874851;29;20402;-52
2021/10/21 09:25:36;;;;;;;;;;;;;;;11.06;87.87;99923.00;4892744;29;20432;-51
2021/10/21 09:28:15;;;;;;;;;;;;;;;11.02;90.19;99931.28;4879005;29;19931;-53
2021/10/21 09:30:47;;;;;;;;;;;;;;;11.06;90.48;99928.25;4876592;29;19935;-50
2021/10/21 09:33:14;;;;;;;;;;;;;;;11.06;91.88;99937.97;4890029;29;20007;-52
2021/10/21 09:35:50;;;;;;;;;;;;;;;11.05;92.44;99937.09;4890968;29;20374;-49
2021/10/21 09:38:18;;;;;;;;;;;;;;;11.02;92.36;99937.38;4879178;29;20391;-52
2021/10/21 09:40:44;;;;;;;;;;;;;;;10.96;93.42;99941.34;4892981;29;19931;-48
2021/10/21 09:43:14;;;;;;;;;;;;;;;10.87;94.01;99938.63;4878959;29;19934;-51
2021/10/21 09:45:43;;;;;;;;;;;;;;;10.87;94.50;99952.59;4878925;29;19928;-48
2021/10/21 09:48:09;;;;;;;;;;;;;;;10.78;94.95;99945.44;4893045;29;19940;-49
2021/10/21 09:50:40;;;;;;;;;;;;;;;10.71;93.23;99957.41;4893102;29;19931;-52
2021/10/21 09:53:07;;;;;;;;;;;;;;;10.67;95.88;99963.88;4892944;29;20019;-58
2021/10/21 09:55:37;;;;;;;;;;;;;;;10.68;96.04;99973.44;4877469;29;20368;-59
2021/10/21 09:58:08;;;;;;;;;;;;;;;10.72;97.09;99966.97;4889630;29;19928;-58
2021/10/21 10:00:35;;;;;;;;;;;;;;;10.67;98.43;99969.13;4877871;29;19932;-59
2021/10/21 10:03:06;;;;;;;;;;;;;;;10.61;98.76;99975.72;4877673;29;19928;-59
2021/10/21 10:05:33;;;;;;;;;;;;;;;10.72;98.68;99972.25;4893018;29;19935;-59
2021/10/21 10:07:59;;;;;;;;;;;;;;;10.69;98.90;99986.47;4892947;29;20395;-58
2021/10/21 10:10:26;;;;;;;;;;;;;;;10.42;99.60;99974.53;4882132;29;20359;-58
2021/10/21 10:12:54;;;;;;;;;;;;;;;10.34;100.00;99978.69;4882383;29;19975;-52
2021/10/21 10:15:21;;;;;;;;;;;;;;;10.32;100.00;99994.56;4876618;29;19931;-53
2021/10/21 10:17:48;;;;;;;;;;;;;;;10.31;100.00;100000.78;4893956;29;20310;-52
2021/10/21 10:20:14;;;;;;;;;;;;;;;10.24;100.00;100003.06;4882215;29;20027;-49
2021/10/21 10:22:41;;;;;;;;;;;;;;;10.16;100.00;100000.19;4884743;29;19932;-51
2021/10/21 10:25:20;;;;;;;;;;;;;;;10.18;100.00;100005.31;4896273;29;19976;-49
2021/10/21 10:28:00;;;;;;;;;;;;;;;10.20;100.00;99992.88;4892902;29;20011;-52
2021/10/21 10:30:40;;;;;;;;;;;;;;;10.33;100.00;100004.13;4877800;29;19939;-50
2021/10/21 10:33:07;;;;;;;;;;;;;;;10.44;100.00;100000.69;4880158;29;19938;-51
2021/10/21 10:35:36;;;;;;;;;;;;;;;10.56;100.00;100001.53;4892814;29;20351;-51
2021/10/21 10:38:04;;;;;;;;;;;;;;;10.85;100.00;99996.59;4878614;29;20471;-49
2021/10/21 10:40:42;;;;;;;;;;;;;;;10.93;100.00;100004.69;4877988;29;20529;-47
2021/10/21 10:43:10;;;;;;;;;;;;;;;11.00;100.00;100005.03;4878399;29;19928;-50
2021/10/21 10:45:56;;;;;;;;;;;;;;;11.05;100.00;100012.59;4868075;29;19959;-51
2021/10/21 10:48:42;;;;;;;;;;;;;;;10.97;100.00;100010.56;4896343;29;19932;-52
2021/10/21 10:51:09;;;;;;;;;;;;;;;11.03;100.00;100007.44;4864912;29;19935;-49
2021/10/21 10:53:57;;;;;;;;;;;;;;;11.04;100.00;100018.81;4881813;29;20450;-51
2021/10/21 10:56:39;;;;;;;;;;;;;;;11.18;100.00;100010.66;4881595;29;19934;-47
2021/10/21 10:59:16;;;;;;;;;;;;;;;11.32;100.00;100017.41;4895685;29;19928;-50
2021/10/21 11:01:43;;;;;;;;;;;;;;;11.42;100.00;100014.88;4881424;29;19928;-50
2021/10/21 11:04:10;;;;;;;;;;;;;;;11.42;98.04;100022.75;4881438;29;19927;-48
2021/10/21 11:06:36;;;;;;;;;;;;;;;11.39;98.51;100021.22;4879844;29;19928;-51
2021/10/21 11:09:05;;;;;;;;;;;;;;;11.70;96.82;100038.91;4893119;29;19974;-58
2021/10/21 11:11:41;;;;;;;;;;;;;;;11.62;97.74;100035.13;4891042;29;20406;-49
2021/10/21 11:14:09;;;;;;;;;;;;;;;11.60;98.49;100058.13;4880322;29;20457;-53
2021/10/21 11:16:51;;;;;;;;;;;;;;;11.56;97.41;100061.97;4876233;29;20410;-49
2021/10/21 11:19:39;;;;;;;;;;;;;;;11.63;95.14;100062.28;4877342;29;19932;-51
2021/10/21 11:22:05;;;;;;;;;;;;;;;11.67;95.69;100064.56;4880684;29;19935;-53
2021/10/21 11:24:53;;;;;;;;;;;;;;;11.55;95.67;100078.72;4881014;29;19950;-48
2021/10/21 11:27:37;;;;;;;;;;;;;;;11.49;95.66;100063.41;4878978;29;19948;-50
2021/10/21 11:30:06;;;;;;;;;;;;;;;11.40;95.34;100078.19;4876204;29;19931;-48
2021/10/21 11:32:34;;;;;;;;;;;;;;;11.32;93.44;100070.88;4877620;29;19932;-51
2021/10/21 11:35:03;;;;;;;;;;;;;;;11.48;93.52;100083.66;4877382;29;19979;-48
2021/10/21 11:37:43;;;;;;;;;;;;;;;11.41;93.68;100084.25;4877517;29;19928;-50
2021/10/21 11:40:11;;;;;;;;;;;;;;;11.35;95.57;100093.50;4878835;29;19927;-52
2021/10/21 11:42:37;;;;;;;;;;;;;;;11.45;94.02;100093.59;4877238;29;19995;-47
2021/10/21 11:45:05;;;;;;;;;;;;;;;11.48;92.38;100096.00;4875831;29;19934;-49
2021/10/21 11:47:33;;;;;;;;;;;;;;;11.83;95.24;100097.53;4891600;29;19939;-46
2021/10/21 11:50:00;;;;;;;;;;;;;;;12.49;90.20;100091.22;4877956;29;19928;-46
2021/10/21 11:52:53;;;;;;;;;;;;;;;12.52;91.68;100089.16;4879364;29;19928;-48
2021/10/21 11:55:25;;;;;;;;;;;;;;;12.72;91.19;100091.91;4879011;29;20291;-58
2021/10/21 11:58:01;;;;;;;;;;;;;;;12.45;83.97;100129.38;4860236;29;19928;-42
2021/10/21 12:00:28;;;;;;;;;;;;;;;11.41;81.30;100206.22;4877837;29;20418;-48
2021/10/21 12:02:59;;;;;;;;;;;;;;;10.70;82.22;100210.81;4894669;29;19927;-47
2021/10/21 12:05:30;;;;;;;;;;;;;;;10.06;85.10;100180.47;4892013;29;19936;-45
2021/10/21 12:07:58;;;;;;;;;;;;;;;9.48;88.09;100200.31;4877405;29;20296;-48
2021/10/21 12:10:39;;;;;;;;;;;;;;;9.42;89.04;100202.53;4876905;29;19938;-46
2021/10/21 12:13:06;;;;;;;;;;;;;;;9.21;91.17;100221.47;4890543;29;20336;-48
2021/10/21 12:15:34;;;;;;;;;;;;;;;9.20;92.81;100234.69;4890354;29;19928;-49
2021/10/21 12:18:10;;;;;;;;;;;;;;;9.05;91.92;100247.06;4891574;29;19967;-47
2021/10/21 12:20:40;;;;;;;;;;;;;;;8.91;91.08;100255.88;4877425;29;20397;-51
2021/10/21 12:23:13;;;;;;;;;;;;;;;8.89;92.10;100263.84;4880234;29;19957;-53
2021/10/21 12:25:40;;;;;;;;;;;;;;;8.95;92.37;100267.84;4862073;29;19932;-51
2021/10/21 12:28:07;;;;;;;;;;;;;;;9.01;93.50;100292.81;4875915;29;19939;-53
2021/10/21 12:30:38;;;;;;;;;;;;;;;8.95;94.85;100288.81;4875708;29;19939;-51
2021/10/21 12:33:15;;;;;;;;;;;;;;;8.95;92.75;100280.97;4878812;29;19928;-53
2021/10/21 12:35:55;;;;;;;;;;;;;;;8.98;93.63;100290.41;4879637;29;19932;-50
2021/10/21 12:38:21;;;;;;;;;;;;;;;9.14;96.20;100299.75;4879785;29;19931;-53
2021/10/21 12:40:56;;;;;;;;;;;;;;;9.24;95.89;100310.47;4879937;29;19975;-54
2021/10/21 12:43:25;;;;;;;;;;;;;;;9.29;96.37;100312.78;4862752;29;19980;-53
2021/10/21 12:45:53;;;;;;;;;;;;;;;9.30;96.85;100307.41;4879363;29;20435;-52
2021/10/21 12:48:29;;;;;;;;;;;;;;;9.46;96.78;100307.22;4879515;29;19932;-51
2021/10/21 12:51:06;;;;;;;;;;;;;;;9.54;96.14;100321.59;4879690;29;19932;-51